createdAt,value
2018-03-26T00:00:40.115Z,3.20
2018-03-26T00:03:07.525Z,3.19
2018-03-26T00:05:34.938Z,3.15
2018-03-26T00:08:02.834Z,3.14
2018-03-26T00:10:30.302Z,3.10
2018-03-26T00:12:57.754Z,3.13
2018-03-26T00:15:25.166Z,3.05
2018-03-26T00:17:52.651Z,3.03
2018-03-26T00:20:20.210Z,3.03
2018-03-26T00:22:47.620Z,2.94
2018-03-26T00:25:15.035Z,2.96
2018-03-26T00:27:42.502Z,2.96
2018-03-26T00:30:09.921Z,3.00
2018-03-26T00:32:37.329Z,2.94
2018-03-26T00:35:04.752Z,2.77
2018-03-26T00:37:32.163Z,2.69
2018-03-26T00:39:59.581Z,2.65
2018-03-26T00:42:27.162Z,2.58
2018-03-26T00:44:54.648Z,2.49
2018-03-26T00:47:22.051Z,2.52
2018-03-26T00:49:49.491Z,2.55
2018-03-26T00:52:17.077Z,2.63
2018-03-26T00:54:44.481Z,2.64
2018-03-26T00:57:11.899Z,2.64
2018-03-26T00:59:39.314Z,2.65
2018-03-26T01:02:06.742Z,2.61
2018-03-26T01:04:34.317Z,2.61
2018-03-26T01:07:01.743Z,2.55
2018-03-26T01:09:29.877Z,2.56
2018-03-26T01:11:58.105Z,2.61
2018-03-26T01:14:25.519Z,2.85
2018-03-26T01:16:52.938Z,2.95
2018-03-26T01:19:20.341Z,2.85
2018-03-26T01:21:47.755Z,2.77
2018-03-26T01:24:15.170Z,2.70
2018-03-26T01:26:42.599Z,2.66
2018-03-26T01:29:10.130Z,2.81
2018-03-26T01:31:37.544Z,3.12
2018-03-26T01:34:04.968Z,2.92
2018-03-26T01:36:32.378Z,2.84
2018-03-26T01:38:59.795Z,2.95
2018-03-26T01:41:27.220Z,3.05
2018-03-26T01:43:54.631Z,2.97
2018-03-26T01:46:22.051Z,3.00
2018-03-26T01:48:49.461Z,3.14
2018-03-26T01:51:16.882Z,3.20
2018-03-26T01:53:44.302Z,3.24
2018-03-26T01:56:11.714Z,3.20
2018-03-26T01:58:39.190Z,3.06
2018-03-26T02:01:06.655Z,2.88
2018-03-26T02:03:34.062Z,2.75
2018-03-26T02:06:01.500Z,2.78
2018-03-26T02:08:29.171Z,3.05
2018-03-26T02:10:56.589Z,3.11
2018-03-26T02:13:23.998Z,3.06
2018-03-26T02:15:51.442Z,3.04
2018-03-26T02:18:18.895Z,3.06
2018-03-26T02:20:46.298Z,3.17
2018-03-26T02:23:13.721Z,3.49
2018-03-26T02:25:41.139Z,3.33
2018-03-26T02:28:08.554Z,3.32
2018-03-26T02:30:35.970Z,3.21
2018-03-26T02:33:03.386Z,3.26
2018-03-26T02:35:31.170Z,3.54
2018-03-26T02:37:58.668Z,3.60
2018-03-26T02:40:26.075Z,3.49
2018-03-26T02:42:53.491Z,3.81
2018-03-26T02:45:20.906Z,3.60
2018-03-26T02:47:48.335Z,3.59
2018-03-26T02:50:15.734Z,3.50
2018-03-26T02:52:43.250Z,3.58
2018-03-26T02:55:10.667Z,3.49
2018-03-26T02:57:38.075Z,3.42
2018-03-26T03:00:08.286Z,3.54
2018-03-26T03:02:35.713Z,3.72
2018-03-26T03:05:03.124Z,3.85
2018-03-26T03:07:30.529Z,3.78
2018-03-26T03:09:57.946Z,3.88
2018-03-26T03:12:25.358Z,3.77
2018-03-26T03:14:52.769Z,3.74
2018-03-26T03:17:20.184Z,4.00
2018-03-26T03:19:47.592Z,4.04
2018-03-26T03:22:14.997Z,3.90
2018-03-26T03:24:42.422Z,3.86
2018-03-26T03:27:09.826Z,3.68
2018-03-26T03:29:37.249Z,3.53
2018-03-26T03:32:04.694Z,3.43
2018-03-26T03:34:33.122Z,3.44
2018-03-26T03:37:00.537Z,3.44
2018-03-26T03:39:27.946Z,3.45
2018-03-26T03:41:55.354Z,3.57
2018-03-26T03:44:22.790Z,3.59
2018-03-26T03:46:50.208Z,3.80
2018-03-26T03:49:17.629Z,3.95
2018-03-26T03:51:45.081Z,3.95
2018-03-26T03:54:12.519Z,3.75
2018-03-26T03:56:39.927Z,3.70
2018-03-26T03:59:07.618Z,3.75
2018-03-26T04:01:35.020Z,3.96
2018-03-26T04:04:02.455Z,4.02
2018-03-26T04:06:29.849Z,4.01
2018-03-26T04:08:57.278Z,4.01
2018-03-26T04:11:24.688Z,4.04
2018-03-26T04:13:52.103Z,4.08
2018-03-26T04:16:19.569Z,4.22
2018-03-26T04:18:46.996Z,4.23
2018-03-26T04:21:14.405Z,4.27
2018-03-26T04:23:41.821Z,4.27
2018-03-26T04:26:09.367Z,4.35
2018-03-26T04:28:36.774Z,4.37
2018-03-26T04:31:04.203Z,4.42
2018-03-26T04:33:31.669Z,4.50
2018-03-26T04:35:59.096Z,4.64
2018-03-26T04:38:26.778Z,4.90
2018-03-26T04:40:54.194Z,4.83
2018-03-26T04:43:21.792Z,4.91
2018-03-26T04:45:49.214Z,4.94
2018-03-26T04:48:16.618Z,5.12
2018-03-26T04:50:44.047Z,5.01
2018-03-26T04:53:11.453Z,5.00
2018-03-26T04:55:38.890Z,4.98
2018-03-26T04:58:06.479Z,4.99
2018-03-26T05:00:33.914Z,5.03
2018-03-26T05:03:01.331Z,5.09
2018-03-26T05:05:28.766Z,5.20
2018-03-26T05:07:56.178Z,5.20
2018-03-26T05:10:23.609Z,5.21
2018-03-26T05:12:51.014Z,5.46
2018-03-26T05:15:18.432Z,5.42
2018-03-26T05:17:45.853Z,5.54
2018-03-26T05:20:13.272Z,5.61
2018-03-26T05:22:40.698Z,5.73
2018-03-26T05:25:08.138Z,5.73
2018-03-26T05:27:35.545Z,5.73
2018-03-26T05:30:02.965Z,5.78
2018-03-26T05:32:30.379Z,5.50
2018-03-26T05:34:57.838Z,5.66
2018-03-26T05:37:25.255Z,5.74
2018-03-26T05:39:52.668Z,5.66
2018-03-26T05:42:20.084Z,5.58
2018-03-26T05:44:47.541Z,5.78
2018-03-26T05:47:15.029Z,5.81
2018-03-26T05:49:43.584Z,5.64
2018-03-26T05:52:11.008Z,5.84
2018-03-26T05:54:38.914Z,5.80
2018-03-26T05:57:06.355Z,5.68
2018-03-26T05:59:33.771Z,5.80
2018-03-26T06:02:01.196Z,5.62
2018-03-26T06:04:28.610Z,5.56
2018-03-26T06:06:56.025Z,5.62
2018-03-26T06:09:23.441Z,5.86
2018-03-26T06:11:50.873Z,5.91
2018-03-26T06:14:18.415Z,5.84
2018-03-26T06:16:57.781Z,5.91
2018-03-26T06:19:25.194Z,6.00
2018-03-26T06:21:52.670Z,6.06
2018-03-26T06:24:20.042Z,6.03
2018-03-26T06:26:47.454Z,5.91
2018-03-26T06:29:14.878Z,6.07
2018-03-26T06:31:42.362Z,5.92
2018-03-26T06:34:10.741Z,6.07
2018-03-26T06:36:43.696Z,6.19
2018-03-26T06:39:15.635Z,6.03
2018-03-26T06:41:43.034Z,6.10
2018-03-26T06:44:11.260Z,6.27
2018-03-26T06:46:38.639Z,6.20
2018-03-26T06:49:06.106Z,6.27
2018-03-26T06:51:33.519Z,6.29
2018-03-26T06:54:00.930Z,6.41
2018-03-26T06:56:28.355Z,6.32
2018-03-26T06:58:55.774Z,6.41
2018-03-26T07:01:23.183Z,6.53
2018-03-26T07:03:50.606Z,6.50
2018-03-26T07:06:18.006Z,6.61
2018-03-26T07:08:45.543Z,6.55
2018-03-26T07:11:13.566Z,6.78
2018-03-26T07:13:40.990Z,6.82
2018-03-26T07:16:08.407Z,6.71
2018-03-26T07:18:35.818Z,6.68
2018-03-26T07:21:03.236Z,6.68
2018-03-26T07:23:30.735Z,6.84
2018-03-26T07:25:58.156Z,6.86
2018-03-26T07:28:25.566Z,7.11
2018-03-26T07:30:52.972Z,7.27
2018-03-26T07:33:20.488Z,7.07
2018-03-26T07:35:47.912Z,7.23
2018-03-26T07:38:15.315Z,7.34
2018-03-26T07:40:42.791Z,7.58
2018-03-26T07:43:10.214Z,7.47
2018-03-26T07:45:37.632Z,7.45
2018-03-26T07:48:05.042Z,7.46
2018-03-26T07:50:32.450Z,7.54
2018-03-26T07:52:59.860Z,7.27
2018-03-26T07:55:27.275Z,7.40
2018-03-26T07:57:54.699Z,7.57
2018-03-26T08:00:22.118Z,7.76
2018-03-26T08:02:49.536Z,7.67
2018-03-26T08:05:16.955Z,7.75
2018-03-26T08:07:45.201Z,7.81
2018-03-26T08:10:12.897Z,7.86
2018-03-26T08:12:40.364Z,7.86
2018-03-26T08:15:07.790Z,7.98
2018-03-26T08:17:35.219Z,8.17
2018-03-26T08:20:02.642Z,8.29
2018-03-26T08:22:30.106Z,8.33
2018-03-26T08:24:57.526Z,8.28
2018-03-26T08:27:24.945Z,8.44
2018-03-26T08:29:52.369Z,8.48
2018-03-26T08:32:29.052Z,8.41
2018-03-26T08:35:13.528Z,8.42
2018-03-26T08:37:43.589Z,8.48
2018-03-26T08:40:29.464Z,8.32
2018-03-26T08:42:56.886Z,8.50
2018-03-26T08:45:24.316Z,8.67
2018-03-26T08:47:51.722Z,8.72
2018-03-26T08:50:19.973Z,8.63
2018-03-26T08:52:47.378Z,8.56
2018-03-26T08:55:14.791Z,8.84
2018-03-26T08:57:42.198Z,8.66
2018-03-26T09:00:09.611Z,8.78
2018-03-26T09:02:37.095Z,8.85
2018-03-26T09:05:04.545Z,8.80
2018-03-26T09:07:31.970Z,8.92
2018-03-26T09:09:59.450Z,8.87
2018-03-26T09:12:26.870Z,9.01
2018-03-26T09:14:54.305Z,8.99
2018-03-26T09:17:21.793Z,8.98
2018-03-26T09:19:49.538Z,9.00
2018-03-26T09:22:17.785Z,8.98
2018-03-26T09:24:45.189Z,9.08
2018-03-26T09:27:12.624Z,9.02
2018-03-26T09:29:40.024Z,9.19
2018-03-26T09:32:07.456Z,9.10
2018-03-26T09:34:34.861Z,9.10
2018-03-26T09:37:02.318Z,9.07
2018-03-26T09:39:29.742Z,9.20
2018-03-26T09:41:57.259Z,9.19
2018-03-26T09:44:24.672Z,9.24
2018-03-26T09:46:52.101Z,9.01
2018-03-26T09:49:19.532Z,9.14
2018-03-26T09:51:46.943Z,9.13
2018-03-26T09:54:14.354Z,9.14
2018-03-26T09:56:41.769Z,9.04
2018-03-26T09:59:09.176Z,9.12
2018-03-26T10:01:42.145Z,8.99
2018-03-26T10:04:09.584Z,9.11
2018-03-26T10:06:37.018Z,9.20
2018-03-26T10:09:04.439Z,9.01
2018-03-26T10:11:31.866Z,9.03
2018-03-26T10:13:59.282Z,9.24
2018-03-26T10:16:26.708Z,9.16
2018-03-26T10:18:54.124Z,9.12
2018-03-26T10:21:21.531Z,9.22
2018-03-26T10:23:49.425Z,9.20
2018-03-26T10:26:16.850Z,9.21
2018-03-26T10:28:44.261Z,9.31
2018-03-26T10:31:11.707Z,9.18
2018-03-26T10:33:39.120Z,9.11
2018-03-26T10:36:06.551Z,9.52
2018-03-26T10:38:33.970Z,9.45
2018-03-26T10:41:01.395Z,9.68
2018-03-26T10:43:28.869Z,9.48
2018-03-26T10:45:56.278Z,9.69
2018-03-26T10:48:23.704Z,9.83
2018-03-26T10:50:51.110Z,9.77
2018-03-26T10:53:18.531Z,9.89
2018-03-26T10:55:45.934Z,10.18
2018-03-26T10:58:13.366Z,10.35
2018-03-26T11:00:40.789Z,10.19
2018-03-26T11:03:08.218Z,10.15
2018-03-26T11:05:35.637Z,10.23
2018-03-26T11:08:03.063Z,10.54
2018-03-26T11:10:30.482Z,10.64
2018-03-26T11:12:57.905Z,10.63
2018-03-26T11:15:25.318Z,10.53
2018-03-26T11:17:52.757Z,10.74
2018-03-26T11:20:21.093Z,10.60
2018-03-26T11:22:48.518Z,10.99
2018-03-26T11:25:15.937Z,11.13
2018-03-26T11:27:43.374Z,11.17
2018-03-26T11:30:10.808Z,11.21
2018-03-26T11:32:38.313Z,10.89
2018-03-26T11:35:05.720Z,11.33
2018-03-26T11:37:33.142Z,11.65
2018-03-26T11:40:00.558Z,11.78
2018-03-26T11:42:28.022Z,11.22
2018-03-26T11:44:55.436Z,11.77
2018-03-26T11:47:23.022Z,11.66
2018-03-26T11:49:50.435Z,11.68
2018-03-26T11:52:17.866Z,11.73
2018-03-26T11:54:45.282Z,11.98
2018-03-26T11:57:12.699Z,12.03
2018-03-26T11:59:41.064Z,11.89
2018-03-26T12:02:08.479Z,11.53
2018-03-26T12:04:35.895Z,11.25
2018-03-26T12:07:03.305Z,11.41
2018-03-26T12:09:30.737Z,11.19
2018-03-26T12:11:58.187Z,11.16
2018-03-26T12:14:25.632Z,11.44
2018-03-26T12:16:53.084Z,11.46
2018-03-26T12:19:20.500Z,11.26
2018-03-26T12:21:47.907Z,11.54
2018-03-26T12:24:27.345Z,11.17
2018-03-26T12:26:54.751Z,11.54
2018-03-26T12:29:34.984Z,11.63
2018-03-26T12:32:02.502Z,11.68
2018-03-26T12:37:23.716Z,11.65
2018-03-26T12:39:51.139Z,11.70
2018-03-26T12:42:18.563Z,11.34
2018-03-26T12:44:57.846Z,11.49
2018-03-26T12:47:25.254Z,11.43
2018-03-26T12:49:52.684Z,11.08
2018-03-26T12:52:31.815Z,10.88
2018-03-26T12:54:59.236Z,10.46
2018-03-26T12:57:38.487Z,10.35
2018-03-26T13:00:05.975Z,10.56
2018-03-26T13:02:33.332Z,10.39
2018-03-26T13:05:00.750Z,10.20
2018-03-26T13:07:28.172Z,10.08
2018-03-26T13:09:55.614Z,9.86
2018-03-26T13:12:23.053Z,9.80
2018-03-26T13:14:50.456Z,9.70
2018-03-26T13:17:17.863Z,9.68
2018-03-26T13:19:45.288Z,9.51
2018-03-26T13:22:12.747Z,9.51
2018-03-26T13:24:40.166Z,9.48
2018-03-26T13:27:07.580Z,9.51
2018-03-26T13:29:35.004Z,9.42
2018-03-26T13:32:02.422Z,9.44
2018-03-26T13:34:29.865Z,9.45
2018-03-26T13:36:57.271Z,9.53
2018-03-26T13:39:25.242Z,9.53
2018-03-26T13:41:52.664Z,9.55
2018-03-26T13:44:20.074Z,9.66
2018-03-26T13:46:47.491Z,9.76
2018-03-26T13:49:14.917Z,9.82
2018-03-26T13:51:42.322Z,9.67
2018-03-26T13:54:09.737Z,9.64
2018-03-26T13:56:37.195Z,9.61
2018-03-26T13:59:04.606Z,9.67
2018-03-26T14:01:32.039Z,9.80
2018-03-26T14:03:59.455Z,9.60
2018-03-26T14:06:26.888Z,9.56
2018-03-26T14:09:06.039Z,9.63
2018-03-26T14:11:45.419Z,9.55
2018-03-26T14:14:24.617Z,9.40
2018-03-26T14:17:03.790Z,9.35
2018-03-26T14:19:31.265Z,9.38
2018-03-26T14:21:58.675Z,9.35
2018-03-26T14:24:26.572Z,9.43
2018-03-26T14:26:53.998Z,9.44
2018-03-26T14:29:21.419Z,9.60
2018-03-26T14:31:48.841Z,9.58
2018-03-26T14:34:16.260Z,9.78
2018-03-26T14:36:43.699Z,9.83
2018-03-26T14:39:11.101Z,9.92
2018-03-26T14:41:38.536Z,10.03
2018-03-26T14:44:05.990Z,10.03
2018-03-26T14:46:33.398Z,9.88
2018-03-26T14:49:00.903Z,9.51
2018-03-26T14:51:28.326Z,9.55
2018-03-26T14:53:55.727Z,9.46
2018-03-26T14:56:23.154Z,9.69
2018-03-26T14:58:50.554Z,9.81
2018-03-26T15:01:17.967Z,9.96
2018-03-26T15:03:45.377Z,9.83
2018-03-26T15:06:12.807Z,9.93
2018-03-26T15:08:40.211Z,9.79
2018-03-26T15:11:07.630Z,9.69
2018-03-26T15:13:35.047Z,9.75
2018-03-26T15:16:02.459Z,9.78
2018-03-26T15:18:29.889Z,9.64
2018-03-26T15:20:57.303Z,9.29
2018-03-26T15:23:24.710Z,9.48
2018-03-26T15:25:52.115Z,9.45
2018-03-26T15:28:19.534Z,9.42
2018-03-26T15:30:46.958Z,9.36
2018-03-26T15:33:14.372Z,9.21
2018-03-26T15:35:41.790Z,9.14
2018-03-26T15:38:09.226Z,9.29
2018-03-26T15:40:36.625Z,9.21
2018-03-26T15:43:04.058Z,9.27
2018-03-26T15:45:31.454Z,9.27
2018-03-26T15:47:59.251Z,9.20
2018-03-26T15:50:26.665Z,9.22
2018-03-26T15:52:54.077Z,9.36
2018-03-26T15:55:21.480Z,9.35
2018-03-26T15:57:48.888Z,9.37
2018-03-26T16:00:16.377Z,9.44
2018-03-26T16:02:49.283Z,9.42
2018-03-26T16:05:16.781Z,9.60
2018-03-26T16:07:44.193Z,9.42
2018-03-26T16:10:11.711Z,9.48
2018-03-26T16:12:39.114Z,9.47
2018-03-26T16:15:06.517Z,9.56
2018-03-26T16:17:33.982Z,9.54
2018-03-26T16:20:01.369Z,9.63
2018-03-26T16:22:28.805Z,9.37
2018-03-26T16:24:56.204Z,9.34
2018-03-26T16:27:23.617Z,9.23
2018-03-26T16:29:51.026Z,9.27
2018-03-26T16:32:18.508Z,9.26
2018-03-26T16:34:45.921Z,9.28
2018-03-26T16:37:13.344Z,9.47
2018-03-26T16:39:40.757Z,9.45
2018-03-26T16:45:14.773Z,9.13
2018-03-26T16:47:42.098Z,9.21
2018-03-26T16:50:09.505Z,9.10
2018-03-26T16:52:36.935Z,9.15
2018-03-26T16:55:04.347Z,9.13
2018-03-26T16:57:31.751Z,9.05
2018-03-26T16:59:59.157Z,8.83
2018-03-26T17:02:26.593Z,8.61
2018-03-26T17:04:54.007Z,8.59
2018-03-26T17:07:21.418Z,8.77
2018-03-26T17:09:48.824Z,8.55
2018-03-26T17:12:16.231Z,8.43
2018-03-26T17:14:43.646Z,8.44
2018-03-26T17:17:11.099Z,8.47
2018-03-26T17:19:38.529Z,8.39
2018-03-26T17:22:05.994Z,8.30
2018-03-26T17:24:33.381Z,8.51
2018-03-26T17:27:00.777Z,8.70
2018-03-26T17:29:28.197Z,8.58
2018-03-26T17:31:55.622Z,8.47
2018-03-26T17:34:23.049Z,8.35
2018-03-26T17:36:50.449Z,8.17
2018-03-26T17:39:17.872Z,8.21
2018-03-26T17:41:45.325Z,8.21
2018-03-26T17:44:12.759Z,8.29
2018-03-26T17:46:40.160Z,8.28
2018-03-26T17:49:07.582Z,8.16
2018-03-26T17:51:34.992Z,7.96
2018-03-26T17:54:02.401Z,7.98
2018-03-26T17:56:29.841Z,7.91
2018-03-26T17:58:57.249Z,7.72
2018-03-26T18:01:24.669Z,7.64
2018-03-26T18:03:52.077Z,7.55
2018-03-26T18:06:19.509Z,7.57
2018-03-26T18:08:46.913Z,7.59
2018-03-26T18:11:14.333Z,7.60
2018-03-26T18:13:41.741Z,7.60
2018-03-26T18:16:09.152Z,7.50
2018-03-26T18:18:36.569Z,7.48
2018-03-26T18:21:04.844Z,7.59
2018-03-26T18:23:32.236Z,7.65
2018-03-26T18:25:59.685Z,7.69
2018-03-26T18:28:27.100Z,7.71
2018-03-26T18:30:54.509Z,7.71
2018-03-26T18:33:21.928Z,7.66
2018-03-26T18:35:49.340Z,7.70
2018-03-26T18:38:16.756Z,7.68
2018-03-26T18:40:44.217Z,7.62
2018-03-26T18:43:11.618Z,7.55
2018-03-26T18:45:39.042Z,7.46
2018-03-26T18:48:06.444Z,7.36
2018-03-26T18:50:33.877Z,7.37
2018-03-26T18:53:01.322Z,7.34
2018-03-26T18:55:28.691Z,7.29
2018-03-26T18:57:56.118Z,7.28
2018-03-26T19:00:23.525Z,7.23
2018-03-26T19:02:50.954Z,7.26
2018-03-26T19:05:18.439Z,7.24
2018-03-26T19:07:45.864Z,7.19
2018-03-26T19:10:13.286Z,7.08
2018-03-26T19:12:40.694Z,7.07
2018-03-26T19:15:08.098Z,7.10
2018-03-26T19:17:35.517Z,7.13
2018-03-26T19:20:03.538Z,7.13
2018-03-26T19:22:30.946Z,7.10
2018-03-26T19:24:58.366Z,7.15
2018-03-26T19:27:25.776Z,7.06
2018-03-26T19:29:53.292Z,7.21
2018-03-26T19:32:20.774Z,7.15
2018-03-26T19:34:48.317Z,7.04
2018-03-26T19:37:15.879Z,6.94
2018-03-26T19:39:43.474Z,7.15
2018-03-26T19:42:11.100Z,7.05
2018-03-26T19:44:38.763Z,7.00
2018-03-26T19:47:06.362Z,6.97
2018-03-26T19:49:33.900Z,7.05
2018-03-26T19:52:01.387Z,7.04
2018-03-26T19:54:28.912Z,7.01
2018-03-26T19:56:56.369Z,7.09
2018-03-26T19:59:23.821Z,7.13
2018-03-26T20:01:51.279Z,7.23
2018-03-26T20:04:18.778Z,6.97
2018-03-26T20:06:46.467Z,7.03
2018-03-26T20:09:14.008Z,7.04
2018-03-26T20:11:41.550Z,7.06
2018-03-26T20:14:09.905Z,7.07
2018-03-26T20:16:38.301Z,7.18
2018-03-26T20:19:05.832Z,7.00
2018-03-26T20:21:33.320Z,7.00
2018-03-26T20:24:00.821Z,6.96
2018-03-26T20:26:28.301Z,6.96
2018-03-26T20:28:55.733Z,6.82
2018-03-26T20:31:23.137Z,6.91
2018-03-26T20:33:50.566Z,6.82
2018-03-26T20:36:17.974Z,6.82
2018-03-26T20:38:45.400Z,6.91
2018-03-26T20:41:12.806Z,6.63
2018-03-26T20:43:41.067Z,6.61
2018-03-26T20:46:08.485Z,6.55
2018-03-26T20:48:35.900Z,6.55
2018-03-26T20:51:03.338Z,6.66
2018-03-26T20:53:30.789Z,6.66
2018-03-26T20:55:58.199Z,6.58
2018-03-26T20:58:25.684Z,6.55
2018-03-26T21:00:53.089Z,6.63
2018-03-26T21:03:20.502Z,6.56
2018-03-26T21:05:47.914Z,6.64
2018-03-26T21:08:15.327Z,6.69
2018-03-26T21:10:42.762Z,6.65
2018-03-26T21:13:10.169Z,6.73
2018-03-26T21:15:37.586Z,6.51
2018-03-26T21:18:04.997Z,6.52
2018-03-26T21:20:32.401Z,6.53
2018-03-26T21:22:59.849Z,6.55
2018-03-26T21:25:27.295Z,6.63
2018-03-26T21:27:54.702Z,6.56
2018-03-26T21:30:22.184Z,6.24
2018-03-26T21:32:49.542Z,6.29
2018-03-26T21:35:16.970Z,6.16
2018-03-26T21:37:44.382Z,6.07
2018-03-26T21:40:11.802Z,6.09
2018-03-26T21:42:39.248Z,5.96
2018-03-26T21:45:06.663Z,6.02
2018-03-26T21:47:34.111Z,5.93
2018-03-26T21:50:01.539Z,5.91
2018-03-26T21:52:28.998Z,5.91
2018-03-26T21:54:56.425Z,5.90
2018-03-26T21:57:23.836Z,6.00
2018-03-26T22:24:17.954Z,5.93
2018-03-26T22:26:46.256Z,6.01
2018-03-26T22:29:13.711Z,5.94
2018-03-26T22:31:41.141Z,6.04
2018-03-26T22:34:08.551Z,6.24
2018-03-26T22:36:35.979Z,5.93
2018-03-26T22:39:03.464Z,5.79
2018-03-26T22:41:30.897Z,5.76
2018-03-26T22:43:58.311Z,5.58
2018-03-26T22:46:25.750Z,5.47
2018-03-26T22:48:53.174Z,5.54
2018-03-26T22:51:20.591Z,5.55
2018-03-26T22:53:48.007Z,5.40
2018-03-26T22:56:15.445Z,5.41
2018-03-26T22:58:42.960Z,5.48
2018-03-26T23:01:10.384Z,5.59
2018-03-26T23:03:37.786Z,5.45
2018-03-26T23:06:05.244Z,5.41
2018-03-26T23:08:32.655Z,5.48
2018-03-26T23:11:00.191Z,5.35
2018-03-26T23:13:27.597Z,5.28
2018-03-26T23:15:55.025Z,5.25
2018-03-26T23:18:22.461Z,5.22
2018-03-26T23:20:49.894Z,5.24
2018-03-26T23:23:17.824Z,5.26
2018-03-26T23:25:45.341Z,5.27
2018-03-26T23:28:12.775Z,5.24
2018-03-26T23:30:40.181Z,5.18
2018-03-26T23:33:07.608Z,4.98
2018-03-26T23:35:35.015Z,4.86
2018-03-26T23:38:02.475Z,4.88
2018-03-26T23:40:29.886Z,4.78
2018-03-26T23:42:57.321Z,4.70
2018-03-26T23:45:24.743Z,4.56
2018-03-26T23:47:52.258Z,4.50
2018-03-26T23:50:19.666Z,4.48
2018-03-26T23:52:47.152Z,4.51
2018-03-26T23:55:14.567Z,4.43
2018-03-26T23:57:42.006Z,4.49
